createdAt,value
2022-11-12T00:01:45.413Z,7.33
2022-11-12T00:04:12.251Z,7.13
2022-11-12T00:06:39.113Z,7.47
2022-11-12T00:09:06.125Z,6.73
2022-11-12T00:11:33.067Z,6.63
2022-11-12T00:14:00.439Z,5.40
2022-11-12T00:16:28.706Z,4.63
2022-11-12T00:18:55.600Z,4.17
2022-11-12T00:21:22.690Z,5.50
2022-11-12T00:23:49.569Z,5.53
2022-11-12T00:26:16.445Z,5.17
2022-11-12T00:28:43.336Z,6.10
2022-11-12T00:31:11.833Z,6.03
2022-11-12T00:33:43.536Z,6.50
2022-11-12T00:36:11.160Z,6.37
2022-11-12T00:38:38.117Z,6.07
2022-11-12T00:41:05.349Z,7.00
2022-11-12T00:43:32.415Z,6.07
2022-11-12T00:45:59.344Z,7.83
2022-11-12T00:48:26.524Z,6.93
2022-11-12T00:51:01.587Z,6.23
2022-11-12T00:53:28.463Z,6.10
2022-11-12T00:56:02.072Z,6.23
2022-11-12T00:58:30.205Z,5.50
2022-11-12T01:00:57.641Z,6.33
2022-11-12T01:03:30.115Z,6.00
2022-11-12T01:06:03.826Z,6.17
2022-11-12T01:08:31.128Z,5.40
2022-11-12T01:11:05.457Z,5.10
2022-11-12T01:13:32.324Z,4.80
2022-11-12T01:15:59.196Z,4.67
2022-11-12T01:18:26.346Z,4.67
2022-11-12T01:20:53.582Z,4.43
2022-11-12T01:23:21.823Z,5.23
2022-11-12T01:25:48.653Z,5.00
2022-11-12T01:28:15.547Z,4.53
2022-11-12T01:30:42.395Z,5.00
2022-11-12T01:33:09.291Z,4.70
2022-11-12T01:35:36.240Z,4.80
2022-11-12T01:38:03.275Z,4.67
2022-11-12T01:40:32.442Z,4.40
2022-11-12T01:42:59.259Z,5.07
2022-11-12T01:45:26.132Z,4.50
2022-11-12T01:47:53.213Z,4.30
2022-11-12T01:50:25.520Z,4.70
2022-11-12T01:52:56.766Z,4.57
2022-11-12T01:55:27.980Z,4.10
2022-11-12T01:58:00.458Z,4.40
2022-11-12T02:00:27.267Z,5.10
2022-11-12T02:02:58.315Z,4.60
2022-11-12T02:05:27.048Z,5.10
2022-11-12T02:07:55.878Z,4.70
2022-11-12T02:10:22.831Z,4.63
2022-11-12T02:13:10.824Z,4.30
2022-11-12T02:15:40.730Z,4.27
2022-11-12T02:18:07.868Z,4.57
2022-11-12T02:20:35.403Z,4.13
2022-11-12T02:23:04.274Z,4.93
2022-11-12T02:25:31.421Z,5.27
2022-11-12T02:27:59.582Z,5.27
2022-11-12T02:30:37.938Z,5.50
2022-11-12T02:35:45.636Z,5.73
2022-11-12T02:38:13.819Z,5.40
2022-11-12T02:40:40.648Z,5.40
2022-11-12T02:43:07.539Z,5.40
2022-11-12T02:45:34.530Z,5.77
2022-11-12T02:48:01.503Z,5.40
2022-11-12T02:50:28.369Z,5.57
2022-11-12T02:52:55.227Z,5.80
2022-11-12T02:55:23.408Z,5.67
2022-11-12T02:57:50.280Z,5.87
2022-11-12T03:00:18.459Z,5.37
2022-11-12T03:02:58.836Z,5.67
2022-11-12T03:05:27.125Z,5.47
2022-11-12T03:07:58.167Z,5.63
2022-11-12T03:10:27.348Z,6.00
2022-11-12T03:12:56.067Z,5.73
2022-11-12T03:15:23.188Z,6.00
2022-11-12T03:17:50.107Z,6.27
2022-11-12T03:20:17.207Z,5.50
2022-11-12T03:22:54.326Z,5.90
2022-11-12T03:25:21.128Z,5.97
2022-11-12T03:27:49.325Z,5.53
2022-11-12T03:30:16.168Z,5.80
2022-11-12T03:32:44.420Z,5.57
2022-11-12T03:35:11.202Z,6.17
2022-11-12T03:37:38.002Z,5.47
2022-11-12T03:40:06.027Z,4.50
2022-11-12T03:42:32.929Z,5.00
2022-11-12T03:45:01.123Z,5.40
2022-11-12T03:47:28.014Z,5.30
2022-11-12T03:49:54.915Z,5.03
2022-11-12T03:52:21.780Z,5.20
2022-11-12T03:54:48.631Z,4.87
2022-11-12T03:57:15.507Z,5.93
2022-11-12T03:59:42.322Z,5.43
2022-11-12T04:02:14.399Z,4.93
2022-11-12T04:05:02.758Z,5.17
2022-11-12T04:07:48.260Z,5.00
2022-11-12T04:10:15.352Z,4.30
2022-11-12T04:13:00.869Z,4.73
2022-11-12T04:15:27.739Z,4.53
2022-11-12T04:18:14.498Z,4.70
2022-11-12T04:21:00.111Z,4.83
2022-11-12T04:23:26.994Z,4.23
2022-11-12T04:26:12.623Z,4.47
2022-11-12T04:28:39.467Z,4.87
2022-11-12T04:31:06.507Z,4.80
2022-11-12T04:33:34.723Z,4.97
2022-11-12T04:36:01.607Z,4.70
2022-11-12T04:38:28.745Z,4.47
2022-11-12T04:41:14.268Z,5.07
2022-11-12T04:43:59.916Z,5.17
2022-11-12T04:46:26.757Z,4.60
2022-11-12T04:48:54.957Z,4.80
2022-11-12T04:51:40.094Z,4.77
2022-11-12T04:54:06.946Z,4.67
2022-11-12T04:56:33.815Z,4.20
2022-11-12T04:59:00.689Z,4.60
2022-11-12T05:01:27.622Z,4.10
2022-11-12T05:03:55.836Z,4.70
2022-11-12T05:06:41.391Z,4.67
2022-11-12T05:09:08.329Z,4.57
2022-11-12T05:11:35.207Z,4.27
2022-11-12T05:14:02.065Z,4.63
2022-11-12T05:16:28.931Z,4.50
2022-11-12T05:18:57.195Z,4.33
2022-11-12T05:21:43.725Z,4.30
2022-11-12T05:24:22.490Z,4.43
2022-11-12T05:26:57.887Z,4.30
2022-11-12T05:29:24.754Z,4.63
2022-11-12T05:31:51.641Z,4.07
2022-11-12T05:34:22.895Z,4.43
2022-11-12T05:36:50.005Z,4.67
2022-11-12T05:39:16.983Z,4.50
2022-11-12T05:42:06.207Z,4.97
2022-11-12T05:44:31.883Z,4.43
2022-11-12T05:46:59.134Z,4.60
2022-11-12T05:49:27.417Z,4.50
2022-11-12T05:51:54.299Z,4.87
2022-11-12T05:54:21.267Z,5.47
2022-11-12T05:56:48.272Z,4.37
2022-11-12T05:59:15.279Z,4.50
2022-11-12T06:01:44.086Z,4.37
2022-11-12T06:04:12.233Z,4.67
2022-11-12T06:06:41.040Z,4.27
2022-11-12T06:09:08.514Z,4.77
2022-11-12T06:11:36.071Z,5.03
2022-11-12T06:14:03.943Z,4.43
2022-11-12T06:16:31.354Z,4.23
2022-11-12T06:18:58.806Z,4.20
2022-11-12T06:21:27.625Z,4.07
2022-11-12T06:23:57.493Z,4.73
2022-11-12T06:26:26.147Z,5.07
2022-11-12T06:28:53.580Z,5.30
2022-11-12T06:31:21.216Z,4.50
2022-11-12T06:33:48.856Z,4.73
2022-11-12T06:36:17.377Z,4.53
2022-11-12T06:38:45.264Z,4.53
2022-11-12T06:41:14.424Z,4.47
2022-11-12T06:43:41.891Z,5.03
2022-11-12T06:46:12.301Z,4.93
2022-11-12T06:48:39.900Z,4.27
2022-11-12T06:51:09.543Z,4.57
2022-11-12T06:53:36.395Z,5.03
2022-11-12T06:56:04.457Z,5.13
2022-11-12T06:58:32.792Z,4.37
2022-11-12T07:01:11.527Z,4.87
2022-11-12T07:03:39.747Z,4.80
2022-11-12T07:06:08.820Z,4.97
2022-11-12T07:08:36.355Z,4.60
2022-11-12T07:11:03.822Z,4.40
2022-11-12T07:13:33.980Z,4.60
2022-11-12T07:16:02.314Z,5.03
2022-11-12T07:18:29.638Z,4.53
2022-11-12T07:21:00.382Z,4.37
2022-11-12T07:23:27.867Z,4.63
2022-11-12T07:25:59.303Z,5.43
2022-11-12T07:28:27.023Z,4.30
2022-11-12T07:31:00.189Z,4.93
2022-11-12T07:33:28.265Z,4.30
2022-11-12T07:35:59.514Z,4.43
2022-11-12T07:38:27.372Z,5.20
2022-11-12T07:41:00.400Z,5.67
2022-11-12T07:43:27.726Z,4.87
2022-11-12T07:45:59.512Z,5.33
2022-11-12T07:48:27.055Z,5.07
2022-11-12T07:51:00.025Z,5.47
2022-11-12T07:53:27.006Z,5.50
2022-11-12T07:55:55.297Z,5.33
2022-11-12T07:58:22.785Z,5.63
2022-11-12T08:00:49.731Z,5.50
2022-11-12T08:03:18.954Z,5.77
2022-11-12T08:05:46.058Z,7.17
2022-11-12T08:08:13.354Z,5.60
2022-11-12T08:10:40.312Z,5.70
2022-11-12T08:13:07.242Z,5.90
2022-11-12T08:15:34.096Z,6.00
2022-11-12T08:18:01.149Z,7.10
2022-11-12T08:20:29.321Z,6.70
2022-11-12T08:23:00.190Z,6.30
2022-11-12T08:25:27.268Z,6.30
2022-11-12T08:27:57.217Z,6.10
2022-11-12T08:30:24.034Z,6.00
2022-11-12T08:32:56.081Z,6.43
2022-11-12T08:35:23.018Z,5.90
2022-11-12T08:37:51.217Z,5.90
2022-11-12T08:40:18.361Z,6.57
2022-11-12T08:42:45.194Z,7.23
2022-11-12T08:45:12.075Z,7.33
2022-11-12T08:47:38.932Z,6.87
2022-11-12T08:50:06.747Z,6.13
2022-11-12T08:52:33.619Z,6.27
2022-11-12T08:55:01.803Z,10.43
2022-11-12T08:57:28.813Z,16.40
2022-11-12T08:59:55.669Z,13.27
2022-11-12T09:02:22.482Z,24.20
2022-11-12T09:04:49.270Z,8.67
2022-11-12T09:07:43.444Z,7.43
2022-11-12T09:10:05.902Z,8.17
2022-11-12T09:12:32.730Z,6.70
2022-11-12T09:15:16.494Z,7.60
2022-11-12T09:17:46.708Z,16.30
2022-11-12T09:20:14.056Z,7.37
2022-11-12T09:22:40.910Z,8.90
2022-11-12T09:25:09.729Z,7.20
2022-11-12T09:27:36.570Z,5.00
2022-11-12T09:30:04.692Z,5.63
2022-11-12T09:32:31.525Z,8.23
2022-11-12T09:34:58.436Z,11.97
2022-11-12T09:37:25.330Z,7.50
2022-11-12T09:39:52.240Z,5.33
2022-11-12T09:42:22.534Z,5.30
2022-11-12T09:44:56.033Z,6.90
2022-11-12T09:47:29.388Z,8.80
2022-11-12T09:50:10.446Z,6.70
2022-11-12T09:52:38.972Z,7.63
2022-11-12T09:55:13.020Z,5.60
2022-11-12T09:57:41.207Z,9.57
2022-11-12T10:00:14.607Z,7.40
2022-11-12T10:02:47.946Z,6.27
2022-11-12T10:05:25.434Z,5.80
2022-11-12T10:08:05.809Z,5.50
2022-11-12T10:10:43.806Z,6.13
2022-11-12T10:13:24.331Z,5.33
2022-11-12T10:16:26.712Z,5.70
2022-11-12T10:19:10.121Z,5.80
2022-11-12T10:21:46.569Z,6.17
2022-11-12T10:24:13.463Z,11.90
2022-11-12T10:26:41.070Z,8.10
2022-11-12T10:29:19.094Z,6.43
2022-11-12T10:31:47.216Z,6.20
2022-11-12T10:34:19.250Z,9.00
2022-11-12T10:36:50.033Z,9.33
2022-11-12T10:39:36.997Z,6.30
2022-11-12T10:42:06.770Z,5.30
2022-11-12T10:44:35.364Z,5.30
2022-11-12T10:47:27.591Z,5.63
2022-11-12T10:50:21.179Z,4.90
2022-11-12T10:53:00.043Z,5.27
2022-11-12T10:55:28.955Z,5.63
2022-11-12T10:58:19.658Z,5.37
2022-11-12T11:00:56.520Z,5.00
2022-11-12T11:03:25.152Z,10.33
2022-11-12T11:05:54.786Z,11.53
2022-11-12T11:08:37.432Z,10.17
2022-11-12T11:11:18.997Z,8.50
2022-11-12T11:13:49.213Z,6.50
2022-11-12T11:16:22.754Z,6.83
2022-11-12T11:18:52.886Z,7.23
2022-11-12T11:21:42.964Z,9.93
2022-11-12T11:24:28.180Z,5.93
2022-11-12T11:27:03.415Z,5.80
2022-11-12T11:29:54.648Z,5.70
2022-11-12T11:32:45.724Z,5.37
2022-11-12T11:35:20.548Z,5.87
2022-11-12T11:37:59.590Z,6.17
2022-11-12T11:40:30.400Z,5.87
2022-11-12T11:46:17.105Z,5.80
2022-11-12T11:49:02.277Z,5.83
2022-11-12T11:51:42.760Z,5.93
2022-11-12T11:54:25.195Z,6.00
2022-11-12T11:56:56.822Z,5.47
2022-11-12T11:59:34.974Z,5.10
2022-11-12T12:02:33.832Z,5.13
2022-11-12T12:05:10.815Z,5.20
2022-11-12T12:07:45.967Z,4.90
2022-11-12T12:10:22.929Z,4.73
2022-11-12T12:13:00.440Z,5.00
2022-11-12T12:15:51.238Z,6.30
2022-11-12T12:18:30.832Z,5.77
2022-11-12T12:21:06.311Z,8.10
2022-11-12T12:23:37.118Z,5.70
2022-11-12T12:26:19.413Z,4.20
2022-11-12T12:28:54.631Z,2.63
2022-11-12T12:31:25.754Z,2.40
2022-11-12T12:33:55.825Z,1.70
2022-11-12T12:36:30.436Z,1.60
2022-11-12T12:39:09.431Z,1.83
2022-11-12T12:41:43.109Z,1.90
2022-11-12T12:44:10.536Z,2.00
2022-11-12T12:46:42.224Z,1.93
2022-11-12T12:49:15.459Z,1.73
2022-11-12T12:51:43.866Z,2.40
2022-11-12T12:54:48.301Z,4.22
2022-11-12T12:57:31.384Z,5.25
2022-11-12T13:00:29.945Z,2.78
2022-11-12T13:02:57.298Z,1.80
2022-11-12T13:05:29.911Z,2.00
2022-11-12T13:08:02.572Z,1.80
2022-11-12T13:10:53.737Z,1.80
2022-11-12T13:13:31.933Z,2.30
2022-11-12T13:16:00.907Z,2.00
2022-11-12T13:18:59.358Z,2.22
2022-11-12T13:21:26.439Z,2.20
2022-11-12T13:24:08.105Z,2.28
2022-11-12T13:26:50.217Z,2.58
2022-11-12T13:29:25.368Z,3.17
2022-11-12T13:32:25.409Z,2.00
2022-11-12T13:35:15.270Z,5.47
2022-11-12T13:37:44.851Z,3.67
2022-11-12T13:40:16.209Z,2.85
2022-11-12T13:42:49.234Z,2.40
2022-11-12T13:45:16.606Z,2.53
2022-11-12T13:47:44.364Z,2.63
2022-11-12T13:50:16.983Z,2.83
2022-11-12T13:52:44.285Z,3.77
2022-11-12T13:55:15.732Z,5.77
2022-11-12T13:57:49.385Z,4.23
2022-11-12T14:00:27.981Z,3.70
2022-11-12T14:02:58.247Z,3.23
2022-11-12T14:05:27.702Z,3.23
2022-11-12T14:08:10.007Z,3.23
2022-11-12T14:10:49.990Z,3.43
2022-11-12T14:13:36.408Z,3.17
2022-11-12T14:16:17.030Z,3.07
2022-11-12T14:19:06.836Z,3.50
2022-11-12T14:21:34.125Z,3.70
2022-11-12T14:24:03.129Z,3.60
2022-11-12T14:26:39.782Z,3.27
2022-11-12T14:29:06.784Z,2.80
2022-11-12T14:31:33.807Z,2.47
2022-11-12T14:34:22.628Z,2.37
2022-11-12T14:36:49.586Z,2.30
2022-11-12T14:39:16.647Z,2.40
2022-11-12T14:41:47.651Z,2.10
2022-11-12T14:44:20.260Z,2.10
2022-11-12T14:46:49.694Z,1.70
2022-11-12T14:49:21.044Z,1.80
2022-11-12T14:51:50.773Z,2.27
2022-11-12T14:54:25.951Z,2.00
2022-11-12T14:56:54.396Z,2.70
2022-11-12T14:59:21.529Z,2.63
2022-11-12T15:02:29.595Z,2.50
2022-11-12T15:05:00.646Z,2.27
2022-11-12T15:07:30.351Z,2.23
2022-11-12T15:09:57.334Z,2.80
2022-11-12T15:12:28.818Z,2.17
2022-11-12T15:15:09.684Z,2.87
2022-11-12T15:17:37.623Z,3.20
2022-11-12T15:20:11.980Z,3.07
2022-11-12T15:22:39.318Z,4.30
2022-11-12T15:25:19.869Z,5.13
2022-11-12T15:27:48.999Z,7.33
2022-11-12T15:30:19.844Z,4.03
2022-11-12T15:32:47.311Z,10.87
2022-11-12T15:35:34.569Z,12.60
2022-11-12T15:38:03.327Z,16.10
2022-11-12T15:40:33.183Z,4.80
2022-11-12T15:43:02.267Z,2.90
2022-11-12T15:45:29.134Z,3.50
2022-11-12T15:47:56.076Z,4.20
2022-11-12T15:50:24.931Z,5.40
2022-11-12T15:52:51.834Z,4.90
2022-11-12T15:55:18.964Z,4.13
2022-11-12T15:57:48.713Z,3.30
2022-11-12T16:00:19.253Z,4.10
2022-11-12T16:02:48.733Z,3.93
2022-11-12T16:05:17.070Z,4.13
2022-11-12T16:07:43.950Z,3.47
2022-11-12T16:10:14.186Z,4.00
2022-11-12T16:12:41.927Z,3.97
2022-11-12T16:15:13.805Z,3.17
2022-11-12T16:17:42.087Z,3.57
2022-11-12T16:20:14.290Z,3.50
2022-11-12T16:22:41.175Z,47.30
2022-11-12T16:25:08.668Z,10.37
2022-11-12T16:27:38.033Z,6.40
2022-11-12T16:30:07.339Z,4.17
2022-11-12T16:32:34.280Z,4.60
2022-11-12T16:35:02.433Z,4.43
2022-11-12T16:37:29.283Z,4.37
2022-11-12T16:39:56.290Z,4.70
2022-11-12T16:42:23.222Z,5.03
2022-11-12T16:44:50.132Z,5.47
2022-11-12T16:47:17.225Z,4.70
2022-11-12T16:49:44.148Z,4.40
2022-11-12T16:52:12.625Z,4.83
2022-11-12T16:54:39.578Z,5.13
2022-11-12T16:57:06.533Z,5.03
2022-11-12T16:59:33.380Z,5.33
2022-11-12T17:02:00.305Z,5.33
2022-11-12T17:04:27.149Z,5.13
2022-11-12T17:06:54.029Z,9.67
2022-11-12T17:09:22.254Z,6.17
2022-11-12T17:11:49.182Z,5.73
2022-11-12T17:14:17.961Z,6.03
2022-11-12T17:16:45.172Z,9.13
2022-11-12T17:19:12.253Z,7.00
2022-11-12T17:21:39.088Z,5.90
2022-11-12T17:24:08.711Z,5.50
2022-11-12T17:26:37.905Z,5.30
2022-11-12T17:29:08.086Z,6.27
2022-11-12T17:31:36.120Z,5.70
2022-11-12T17:34:05.277Z,6.17
2022-11-12T17:36:32.334Z,8.50
2022-11-12T17:39:00.541Z,8.57
2022-11-12T17:41:30.993Z,7.40
2022-11-12T17:44:00.364Z,7.27
2022-11-12T17:46:28.278Z,6.67
2022-11-12T17:48:55.958Z,7.77
2022-11-12T17:51:24.664Z,7.50
2022-11-12T17:53:51.737Z,7.17
2022-11-12T17:56:19.773Z,8.33
2022-11-12T17:58:47.339Z,7.40
2022-11-12T18:01:17.521Z,8.10
2022-11-12T18:03:47.313Z,11.63
2022-11-12T18:06:16.416Z,14.13
2022-11-12T18:08:43.772Z,11.73
2022-11-12T18:11:12.247Z,10.10
2022-11-12T18:13:39.148Z,9.50
2022-11-12T18:16:15.471Z,9.30
2022-11-12T18:18:42.706Z,9.30
2022-11-12T18:21:09.975Z,9.33
2022-11-12T18:23:37.563Z,8.97
2022-11-12T18:26:04.517Z,9.43
2022-11-12T18:28:31.709Z,9.37
2022-11-12T18:31:02.526Z,9.63
2022-11-12T18:33:31.654Z,9.23
2022-11-12T18:36:02.439Z,9.30
2022-11-12T18:38:31.840Z,11.00
2022-11-12T18:41:03.290Z,10.63
2022-11-12T18:43:30.378Z,9.93
2022-11-12T18:46:01.137Z,8.83
2022-11-12T18:48:30.463Z,10.33
2022-11-12T18:50:59.509Z,15.00
2022-11-12T18:53:26.786Z,23.87
2022-11-12T18:55:54.347Z,31.40
2022-11-12T18:58:21.453Z,15.83
2022-11-12T19:00:48.380Z,10.77
2022-11-12T19:03:15.355Z,9.93
2022-11-12T19:05:43.731Z,9.10
2022-11-12T19:08:10.603Z,9.37
2022-11-12T19:10:37.670Z,10.63
2022-11-12T19:13:05.193Z,12.90
2022-11-12T19:15:34.052Z,16.57
2022-11-12T19:18:01.258Z,13.53
2022-11-12T19:20:28.719Z,18.47
2022-11-12T19:22:57.135Z,17.03
2022-11-12T19:25:23.987Z,14.97
2022-11-12T19:27:50.846Z,11.63
2022-11-12T19:30:17.797Z,9.73
2022-11-12T19:32:44.688Z,10.40
2022-11-12T19:35:11.596Z,9.57
2022-11-12T19:37:39.504Z,10.80
2022-11-12T19:40:09.662Z,10.53
2022-11-12T19:42:36.512Z,11.07
2022-11-12T19:45:03.918Z,11.43
2022-11-12T19:47:30.813Z,10.87
2022-11-12T19:49:57.834Z,10.87
2022-11-12T19:52:24.763Z,11.40
2022-11-12T19:54:51.653Z,12.40
2022-11-12T19:57:19.920Z,13.40
2022-11-12T19:59:46.939Z,45.50
2022-11-12T20:02:13.818Z,19.23
2022-11-12T20:04:40.708Z,12.67
2022-11-12T20:07:07.590Z,13.30
2022-11-12T20:09:34.483Z,13.00
2022-11-12T20:12:01.705Z,13.13
2022-11-12T20:14:29.965Z,12.37
2022-11-12T20:16:56.930Z,13.10
2022-11-12T20:19:23.761Z,12.87
2022-11-12T20:21:50.614Z,14.13
2022-11-12T20:24:17.620Z,13.63
2022-11-12T20:26:44.487Z,19.40
2022-11-12T20:29:11.311Z,31.17
2022-11-12T20:31:39.589Z,24.30
2022-11-12T20:34:06.488Z,23.00
2022-11-12T20:36:33.411Z,20.10
2022-11-12T20:39:00.967Z,19.63
2022-11-12T20:41:28.477Z,19.17
2022-11-12T20:43:57.705Z,15.20
2022-11-12T20:46:25.077Z,14.10
2022-11-12T20:48:56.819Z,16.20
2022-11-12T20:51:26.055Z,13.93
2022-11-12T20:53:58.764Z,13.63
2022-11-12T20:56:29.056Z,15.23
2022-11-12T20:58:56.338Z,17.53
2022-11-12T21:01:24.798Z,14.67
2022-11-12T21:03:53.166Z,16.13
2022-11-12T21:06:23.116Z,19.53
2022-11-12T21:08:50.511Z,28.37
2022-11-12T21:11:19.469Z,17.60
2022-11-12T21:13:46.386Z,15.57
2022-11-12T21:16:14.383Z,15.43
2022-11-12T21:18:41.758Z,14.70
2022-11-12T21:21:11.531Z,15.07
2022-11-12T21:23:39.682Z,17.03
2022-11-12T21:26:09.084Z,22.67
2022-11-12T21:28:38.227Z,18.00
2022-11-12T21:31:07.554Z,18.40
2022-11-12T21:33:35.231Z,18.93
2022-11-12T21:36:02.394Z,16.63
2022-11-12T21:38:30.987Z,15.97
2022-11-12T21:41:02.683Z,15.20
2022-11-12T21:43:29.555Z,15.37
2022-11-12T21:45:56.552Z,15.53
2022-11-12T21:48:23.517Z,15.93
2022-11-12T21:50:50.670Z,16.00
2022-11-12T21:53:17.601Z,16.30
2022-11-12T21:55:46.018Z,15.97
2022-11-12T21:58:12.911Z,16.70
2022-11-12T22:00:42.037Z,17.37
2022-11-12T22:03:09.729Z,16.83
2022-11-12T22:05:37.419Z,15.43
2022-11-12T22:08:04.569Z,15.97
2022-11-12T22:10:31.656Z,14.93
2022-11-12T22:13:25.271Z,15.13
2022-11-12T22:15:46.758Z,14.90
2022-11-12T22:18:13.556Z,14.90
2022-11-12T22:20:40.420Z,15.03
2022-11-12T22:23:07.252Z,14.40
2022-11-12T22:25:34.182Z,14.93
2022-11-12T22:28:02.460Z,15.07
2022-11-12T22:30:29.524Z,14.90
2022-11-12T22:32:56.513Z,15.20
2022-11-12T22:35:23.411Z,15.07
2022-11-12T22:37:50.272Z,16.37
2022-11-12T22:40:17.263Z,15.83
2022-11-12T22:42:44.148Z,15.83
2022-11-12T22:45:12.461Z,17.47
2022-11-12T22:47:39.293Z,16.70
2022-11-12T22:50:07.445Z,15.33
2022-11-12T22:52:34.367Z,16.10
2022-11-12T22:55:01.393Z,16.43
2022-11-12T22:57:28.190Z,17.10
2022-11-12T22:59:55.118Z,15.97
2022-11-12T23:02:23.365Z,16.47
2022-11-12T23:04:50.428Z,16.73
2022-11-12T23:07:17.435Z,16.60
2022-11-12T23:09:44.340Z,16.30
2022-11-12T23:12:11.167Z,16.90
2022-11-12T23:14:38.083Z,17.50
2022-11-12T23:17:05.052Z,17.80
2022-11-12T23:19:33.247Z,17.73
2022-11-12T23:22:03.973Z,17.33
2022-11-12T23:24:33.630Z,17.13
2022-11-12T23:27:01.152Z,16.93
2022-11-12T23:29:28.146Z,16.60
2022-11-12T23:31:55.431Z,16.83
2022-11-12T23:34:22.339Z,15.90
2022-11-12T23:36:50.491Z,17.20
2022-11-12T23:39:17.436Z,17.27
2022-11-12T23:41:44.294Z,17.53
2022-11-12T23:44:11.278Z,17.60
2022-11-12T23:46:38.157Z,47.10
2022-11-12T23:49:05.009Z,22.93
2022-11-12T23:51:31.823Z,19.40
2022-11-12T23:54:00.049Z,20.13
2022-11-12T23:56:26.962Z,21.07
2022-11-12T23:58:55.117Z,20.67
